sensor_id;sensor_type;location;lat;lon;timestamp;P1;durP1;ratioP1;P2;durP2;ratioP2
37477;SDS011;23334;54.316;10.182;2023-04-25T00:01:06;11.97;;;2.50;;
37477;SDS011;23334;54.316;10.182;2023-04-25T00:03:33;11.67;;;2.50;;
37477;SDS011;23334;54.316;10.182;2023-04-25T00:06:00;11.37;;;2.87;;
37477;SDS011;23334;54.316;10.182;2023-04-25T00:08:28;7.83;;;2.07;;
37477;SDS011;23334;54.316;10.182;2023-04-25T00:10:54;7.40;;;2.43;;
37477;SDS011;23334;54.316;10.182;2023-04-25T00:13:20;9.47;;;2.67;;
37477;SDS011;23334;54.316;10.182;2023-04-25T00:15:46;7.67;;;2.37;;
37477;SDS011;23334;54.316;10.182;2023-04-25T00:18:13;15.00;;;2.20;;
37477;SDS011;23334;54.316;10.182;2023-04-25T00:20:39;13.43;;;3.07;;
37477;SDS011;23334;54.316;10.182;2023-04-25T00:23:05;15.63;;;2.50;;
37477;SDS011;23334;54.316;10.182;2023-04-25T00:25:31;7.47;;;2.30;;
37477;SDS011;23334;54.316;10.182;2023-04-25T00:27:57;4.50;;;2.40;;
37477;SDS011;23334;54.316;10.182;2023-04-25T00:30:23;17.40;;;3.07;;
37477;SDS011;23334;54.316;10.182;2023-04-25T00:32:49;7.53;;;2.43;;
37477;SDS011;23334;54.316;10.182;2023-04-25T00:35:15;8.27;;;2.57;;
37477;SDS011;23334;54.316;10.182;2023-04-25T00:37:41;16.83;;;3.13;;
37477;SDS011;23334;54.316;10.182;2023-04-25T00:40:07;5.80;;;2.57;;
37477;SDS011;23334;54.316;10.182;2023-04-25T00:42:34;10.47;;;2.73;;
37477;SDS011;23334;54.316;10.182;2023-04-25T00:45:01;8.83;;;2.80;;
37477;SDS011;23334;54.316;10.182;2023-04-25T00:47:29;6.93;;;1.77;;
37477;SDS011;23334;54.316;10.182;2023-04-25T00:49:55;16.30;;;3.10;;
37477;SDS011;23334;54.316;10.182;2023-04-25T00:52:21;8.00;;;2.20;;
37477;SDS011;23334;54.316;10.182;2023-04-25T00:54:47;6.30;;;2.30;;
37477;SDS011;23334;54.316;10.182;2023-04-25T00:57:13;12.60;;;2.60;;
37477;SDS011;23334;54.316;10.182;2023-04-25T00:59:39;10.57;;;3.20;;
37477;SDS011;23334;54.316;10.182;2023-04-25T01:02:09;7.80;;;2.63;;
37477;SDS011;23334;54.316;10.182;2023-04-25T01:04:35;9.80;;;3.40;;
37477;SDS011;23334;54.316;10.182;2023-04-25T01:07:01;9.53;;;3.10;;
37477;SDS011;23334;54.316;10.182;2023-04-25T01:09:27;16.63;;;3.00;;
37477;SDS011;23334;54.316;10.182;2023-04-25T01:11:56;12.13;;;2.97;;
37477;SDS011;23334;54.316;10.182;2023-04-25T01:14:22;8.50;;;2.50;;
37477;SDS011;23334;54.316;10.182;2023-04-25T01:16:48;18.63;;;3.23;;
37477;SDS011;23334;54.316;10.182;2023-04-25T01:19:16;7.23;;;1.90;;
37477;SDS011;23334;54.316;10.182;2023-04-25T01:21:43;10.67;;;3.30;;
37477;SDS011;23334;54.316;10.182;2023-04-25T01:24:08;9.33;;;2.60;;
37477;SDS011;23334;54.316;10.182;2023-04-25T01:26:35;5.23;;;2.20;;
37477;SDS011;23334;54.316;10.182;2023-04-25T01:29:01;9.60;;;2.87;;
37477;SDS011;23334;54.316;10.182;2023-04-25T01:31:27;15.53;;;2.83;;
37477;SDS011;23334;54.316;10.182;2023-04-25T01:33:53;7.20;;;2.70;;
37477;SDS011;23334;54.316;10.182;2023-04-25T01:36:19;7.33;;;2.83;;
37477;SDS011;23334;54.316;10.182;2023-04-25T01:38:46;16.20;;;2.60;;
37477;SDS011;23334;54.316;10.182;2023-04-25T01:41:12;10.70;;;2.37;;
37477;SDS011;23334;54.316;10.182;2023-04-25T01:43:38;10.03;;;2.80;;
37477;SDS011;23334;54.316;10.182;2023-04-25T01:46:04;14.03;;;2.63;;
37477;SDS011;23334;54.316;10.182;2023-04-25T01:48:30;8.73;;;2.60;;
37477;SDS011;23334;54.316;10.182;2023-04-25T01:50:56;8.10;;;2.73;;
37477;SDS011;23334;54.316;10.182;2023-04-25T01:53:22;8.37;;;2.37;;
37477;SDS011;23334;54.316;10.182;2023-04-25T01:55:48;5.53;;;2.23;;
37477;SDS011;23334;54.316;10.182;2023-04-25T01:58:14;7.10;;;2.27;;
37477;SDS011;23334;54.316;10.182;2023-04-25T02:00:40;19.67;;;2.33;;
37477;SDS011;23334;54.316;10.182;2023-04-25T02:03:06;9.43;;;2.33;;
37477;SDS011;23334;54.316;10.182;2023-04-25T02:05:35;7.30;;;1.90;;
37477;SDS011;23334;54.316;10.182;2023-04-25T02:08:02;13.27;;;2.90;;
37477;SDS011;23334;54.316;10.182;2023-04-25T02:10:29;6.60;;;2.07;;
37477;SDS011;23334;54.316;10.182;2023-04-25T02:12:55;8.10;;;2.20;;
37477;SDS011;23334;54.316;10.182;2023-04-25T02:15:22;5.23;;;2.47;;
37477;SDS011;23334;54.316;10.182;2023-04-25T02:17:48;9.87;;;2.30;;
37477;SDS011;23334;54.316;10.182;2023-04-25T02:20:13;7.83;;;2.60;;
37477;SDS011;23334;54.316;10.182;2023-04-25T02:22:41;10.77;;;2.53;;
37477;SDS011;23334;54.316;10.182;2023-04-25T02:25:07;20.17;;;2.70;;
37477;SDS011;23334;54.316;10.182;2023-04-25T02:27:34;10.67;;;2.33;;
37477;SDS011;23334;54.316;10.182;2023-04-25T02:30:00;16.10;;;3.07;;
37477;SDS011;23334;54.316;10.182;2023-04-25T02:32:26;16.47;;;2.90;;
37477;SDS011;23334;54.316;10.182;2023-04-25T02:34:52;8.03;;;2.77;;
37477;SDS011;23334;54.316;10.182;2023-04-25T02:37:18;8.77;;;2.77;;
37477;SDS011;23334;54.316;10.182;2023-04-25T02:39:44;17.13;;;3.07;;
37477;SDS011;23334;54.316;10.182;2023-04-25T02:42:10;14.93;;;2.43;;
37477;SDS011;23334;54.316;10.182;2023-04-25T02:44:36;16.13;;;3.00;;
37477;SDS011;23334;54.316;10.182;2023-04-25T02:47:02;15.93;;;2.80;;
37477;SDS011;23334;54.316;10.182;2023-04-25T02:49:27;17.23;;;3.50;;
37477;SDS011;23334;54.316;10.182;2023-04-25T02:51:53;12.93;;;3.23;;
37477;SDS011;23334;54.316;10.182;2023-04-25T02:54:19;9.83;;;3.10;;
37477;SDS011;23334;54.316;10.182;2023-04-25T02:56:45;13.27;;;4.23;;
37477;SDS011;23334;54.316;10.182;2023-04-25T02:59:11;12.07;;;2.97;;
37477;SDS011;23334;54.316;10.182;2023-04-25T03:01:37;13.50;;;3.00;;
37477;SDS011;23334;54.316;10.182;2023-04-25T03:04:03;17.83;;;3.37;;
37477;SDS011;23334;54.316;10.182;2023-04-25T03:06:28;13.87;;;2.90;;
37477;SDS011;23334;54.316;10.182;2023-04-25T03:08:55;10.37;;;2.63;;
37477;SDS011;23334;54.316;10.182;2023-04-25T03:11:21;8.27;;;3.50;;
37477;SDS011;23334;54.316;10.182;2023-04-25T03:13:47;22.13;;;2.93;;
37477;SDS011;23334;54.316;10.182;2023-04-25T03:16:14;7.07;;;2.50;;
37477;SDS011;23334;54.316;10.182;2023-04-25T03:18:40;8.40;;;2.80;;
37477;SDS011;23334;54.316;10.182;2023-04-25T03:21:06;10.83;;;2.63;;
37477;SDS011;23334;54.316;10.182;2023-04-25T03:23:31;15.50;;;3.97;;
37477;SDS011;23334;54.316;10.182;2023-04-25T03:25:57;16.50;;;2.70;;
37477;SDS011;23334;54.316;10.182;2023-04-25T03:28:23;16.23;;;2.90;;
37477;SDS011;23334;54.316;10.182;2023-04-25T03:30:48;8.07;;;2.20;;
37477;SDS011;23334;54.316;10.182;2023-04-25T03:33:14;13.63;;;3.00;;
37477;SDS011;23334;54.316;10.182;2023-04-25T03:35:40;8.00;;;2.93;;
37477;SDS011;23334;54.316;10.182;2023-04-25T03:38:07;10.70;;;2.93;;
37477;SDS011;23334;54.316;10.182;2023-04-25T03:40:33;10.87;;;3.10;;
37477;SDS011;23334;54.316;10.182;2023-04-25T03:42:58;9.27;;;2.80;;
37477;SDS011;23334;54.316;10.182;2023-04-25T03:45:24;15.83;;;2.27;;
37477;SDS011;23334;54.316;10.182;2023-04-25T03:47:49;17.03;;;2.87;;
37477;SDS011;23334;54.316;10.182;2023-04-25T03:50:15;15.10;;;3.13;;
37477;SDS011;23334;54.316;10.182;2023-04-25T03:52:42;14.73;;;2.83;;
37477;SDS011;23334;54.316;10.182;2023-04-25T03:55:08;18.10;;;3.17;;
37477;SDS011;23334;54.316;10.182;2023-04-25T03:57:33;10.27;;;2.83;;
37477;SDS011;23334;54.316;10.182;2023-04-25T03:59:59;16.70;;;2.47;;
37477;SDS011;23334;54.316;10.182;2023-04-25T04:02:25;22.67;;;4.90;;
37477;SDS011;23334;54.316;10.182;2023-04-25T04:04:51;8.87;;;2.57;;
37477;SDS011;23334;54.316;10.182;2023-04-25T04:07:17;8.93;;;1.90;;
37477;SDS011;23334;54.316;10.182;2023-04-25T04:09:42;12.60;;;3.17;;
37477;SDS011;23334;54.316;10.182;2023-04-25T04:12:08;15.00;;;2.70;;
37477;SDS011;23334;54.316;10.182;2023-04-25T04:14:34;11.87;;;2.80;;
37477;SDS011;23334;54.316;10.182;2023-04-25T04:17:00;11.33;;;2.20;;
37477;SDS011;23334;54.316;10.182;2023-04-25T04:19:25;5.70;;;1.93;;
37477;SDS011;23334;54.316;10.182;2023-04-25T04:21:51;3.50;;;1.90;;
37477;SDS011;23334;54.316;10.182;2023-04-25T04:24:17;3.37;;;2.10;;
37477;SDS011;23334;54.316;10.182;2023-04-25T04:26:43;9.30;;;2.17;;
37477;SDS011;23334;54.316;10.182;2023-04-25T04:29:10;7.00;;;2.30;;
37477;SDS011;23334;54.316;10.182;2023-04-25T04:31:36;11.73;;;2.87;;
37477;SDS011;23334;54.316;10.182;2023-04-25T04:34:02;9.73;;;2.20;;
37477;SDS011;23334;54.316;10.182;2023-04-25T04:36:28;4.97;;;2.50;;
37477;SDS011;23334;54.316;10.182;2023-04-25T04:38:54;10.73;;;2.87;;
37477;SDS011;23334;54.316;10.182;2023-04-25T04:41:21;4.70;;;2.93;;
37477;SDS011;23334;54.316;10.182;2023-04-25T04:43:47;13.17;;;3.23;;
37477;SDS011;23334;54.316;10.182;2023-04-25T04:46:13;12.97;;;2.70;;
37477;SDS011;23334;54.316;10.182;2023-04-25T04:48:39;10.57;;;2.43;;
37477;SDS011;23334;54.316;10.182;2023-04-25T04:51:05;17.47;;;2.60;;
37477;SDS011;23334;54.316;10.182;2023-04-25T04:53:30;3.90;;;2.17;;
37477;SDS011;23334;54.316;10.182;2023-04-25T04:55:56;11.53;;;3.63;;
37477;SDS011;23334;54.316;10.182;2023-04-25T04:58:21;10.97;;;2.37;;
37477;SDS011;23334;54.316;10.182;2023-04-25T05:00:48;7.00;;;2.17;;
37477;SDS011;23334;54.316;10.182;2023-04-25T05:03:13;17.73;;;2.63;;
37477;SDS011;23334;54.316;10.182;2023-04-25T05:05:40;11.03;;;2.27;;
37477;SDS011;23334;54.316;10.182;2023-04-25T05:08:06;6.90;;;2.50;;
37477;SDS011;23334;54.316;10.182;2023-04-25T05:10:31;11.87;;;3.33;;
37477;SDS011;23334;54.316;10.182;2023-04-25T05:12:57;6.80;;;2.03;;
37477;SDS011;23334;54.316;10.182;2023-04-25T05:15:23;6.13;;;2.40;;
37477;SDS011;23334;54.316;10.182;2023-04-25T05:17:48;8.57;;;2.73;;
37477;SDS011;23334;54.316;10.182;2023-04-25T05:20:14;8.13;;;2.00;;
37477;SDS011;23334;54.316;10.182;2023-04-25T05:22:40;13.07;;;2.73;;
37477;SDS011;23334;54.316;10.182;2023-04-25T05:25:06;13.43;;;2.20;;
37477;SDS011;23334;54.316;10.182;2023-04-25T05:27:33;9.90;;;1.83;;
37477;SDS011;23334;54.316;10.182;2023-04-25T05:29:58;13.13;;;2.83;;
37477;SDS011;23334;54.316;10.182;2023-04-25T05:32:24;4.93;;;2.27;;
37477;SDS011;23334;54.316;10.182;2023-04-25T05:34:51;7.80;;;2.20;;
37477;SDS011;23334;54.316;10.182;2023-04-25T05:37:17;16.77;;;2.40;;
37477;SDS011;23334;54.316;10.182;2023-04-25T05:39:43;15.10;;;2.83;;
37477;SDS011;23334;54.316;10.182;2023-04-25T05:42:08;7.53;;;2.10;;
37477;SDS011;23334;54.316;10.182;2023-04-25T05:44:35;8.63;;;2.13;;
37477;SDS011;23334;54.316;10.182;2023-04-25T05:47:01;10.73;;;2.17;;
37477;SDS011;23334;54.316;10.182;2023-04-25T05:49:29;13.97;;;2.13;;
37477;SDS011;23334;54.316;10.182;2023-04-25T05:51:54;5.40;;;1.93;;
37477;SDS011;23334;54.316;10.182;2023-04-25T05:54:20;11.93;;;2.30;;
37477;SDS011;23334;54.316;10.182;2023-04-25T05:56:46;16.20;;;2.97;;
37477;SDS011;23334;54.316;10.182;2023-04-25T05:59:12;18.27;;;2.90;;
37477;SDS011;23334;54.316;10.182;2023-04-25T06:01:37;10.30;;;2.70;;
37477;SDS011;23334;54.316;10.182;2023-04-25T06:04:03;9.97;;;2.70;;
37477;SDS011;23334;54.316;10.182;2023-04-25T06:06:29;14.53;;;2.40;;
37477;SDS011;23334;54.316;10.182;2023-04-25T06:08:55;4.90;;;1.70;;
37477;SDS011;23334;54.316;10.182;2023-04-25T06:11:21;6.47;;;1.50;;
37477;SDS011;23334;54.316;10.182;2023-04-25T06:13:47;5.97;;;2.23;;
37477;SDS011;23334;54.316;10.182;2023-04-25T06:16:13;8.70;;;2.07;;
37477;SDS011;23334;54.316;10.182;2023-04-25T06:18:38;4.00;;;2.10;;
37477;SDS011;23334;54.316;10.182;2023-04-25T06:21:04;8.13;;;2.10;;
37477;SDS011;23334;54.316;10.182;2023-04-25T06:23:30;4.80;;;2.10;;
37477;SDS011;23334;54.316;10.182;2023-04-25T06:25:56;21.77;;;2.50;;
37477;SDS011;23334;54.316;10.182;2023-04-25T06:28:23;8.33;;;2.73;;
37477;SDS011;23334;54.316;10.182;2023-04-25T06:30:49;12.10;;;2.93;;
37477;SDS011;23334;54.316;10.182;2023-04-25T06:33:15;4.10;;;1.80;;
37477;SDS011;23334;54.316;10.182;2023-04-25T06:35:40;4.40;;;1.50;;
37477;SDS011;23334;54.316;10.182;2023-04-25T06:38:06;12.60;;;2.60;;
37477;SDS011;23334;54.316;10.182;2023-04-25T06:40:32;13.10;;;3.10;;
37477;SDS011;23334;54.316;10.182;2023-04-25T06:42:58;11.80;;;2.27;;
37477;SDS011;23334;54.316;10.182;2023-04-25T06:45:23;9.70;;;2.33;;
37477;SDS011;23334;54.316;10.182;2023-04-25T06:47:49;8.27;;;2.60;;
37477;SDS011;23334;54.316;10.182;2023-04-25T06:50:16;7.43;;;1.70;;
37477;SDS011;23334;54.316;10.182;2023-04-25T06:52:42;16.63;;;2.90;;
37477;SDS011;23334;54.316;10.182;2023-04-25T06:55:08;10.73;;;2.43;;
37477;SDS011;23334;54.316;10.182;2023-04-25T06:57:35;12.13;;;2.50;;
37477;SDS011;23334;54.316;10.182;2023-04-25T07:00:04;8.70;;;2.43;;
37477;SDS011;23334;54.316;10.182;2023-04-25T07:02:33;13.00;;;2.60;;
37477;SDS011;23334;54.316;10.182;2023-04-25T07:04:59;13.03;;;2.80;;
37477;SDS011;23334;54.316;10.182;2023-04-25T07:07:25;6.77;;;2.10;;
37477;SDS011;23334;54.316;10.182;2023-04-25T07:09:51;8.90;;;2.20;;
37477;SDS011;23334;54.316;10.182;2023-04-25T07:12:17;9.23;;;1.90;;
37477;SDS011;23334;54.316;10.182;2023-04-25T07:14:44;9.60;;;1.60;;
37477;SDS011;23334;54.316;10.182;2023-04-25T07:17:10;11.37;;;2.43;;
37477;SDS011;23334;54.316;10.182;2023-04-25T07:19:36;14.17;;;2.33;;
37477;SDS011;23334;54.316;10.182;2023-04-25T07:22:03;17.83;;;2.30;;
37477;SDS011;23334;54.316;10.182;2023-04-25T07:24:29;10.10;;;2.50;;
37477;SDS011;23334;54.316;10.182;2023-04-25T07:26:55;12.73;;;2.30;;
37477;SDS011;23334;54.316;10.182;2023-04-25T07:29:21;6.03;;;2.00;;
37477;SDS011;23334;54.316;10.182;2023-04-25T07:31:48;4.93;;;2.03;;
37477;SDS011;23334;54.316;10.182;2023-04-25T07:34:14;6.10;;;1.60;;
37477;SDS011;23334;54.316;10.182;2023-04-25T07:36:40;10.80;;;2.20;;
37477;SDS011;23334;54.316;10.182;2023-04-25T07:39:06;11.20;;;1.90;;
37477;SDS011;23334;54.316;10.182;2023-04-25T07:41:34;25.03;;;2.40;;
37477;SDS011;23334;54.316;10.182;2023-04-25T07:44:00;4.63;;;2.20;;
37477;SDS011;23334;54.316;10.182;2023-04-25T07:46:25;5.47;;;1.50;;
37477;SDS011;23334;54.316;10.182;2023-04-25T07:48:51;12.40;;;2.17;;
37477;SDS011;23334;54.316;10.182;2023-04-25T07:51:17;9.07;;;2.30;;
37477;SDS011;23334;54.316;10.182;2023-04-25T07:53:44;3.80;;;1.37;;
37477;SDS011;23334;54.316;10.182;2023-04-25T07:56:10;12.33;;;1.97;;
37477;SDS011;23334;54.316;10.182;2023-04-25T07:58:37;8.20;;;2.47;;
37477;SDS011;23334;54.316;10.182;2023-04-25T08:01:03;7.00;;;2.20;;
37477;SDS011;23334;54.316;10.182;2023-04-25T08:03:29;11.13;;;2.00;;
37477;SDS011;23334;54.316;10.182;2023-04-25T08:05:55;5.10;;;2.30;;
37477;SDS011;23334;54.316;10.182;2023-04-25T08:08:20;7.50;;;2.77;;
37477;SDS011;23334;54.316;10.182;2023-04-25T08:10:46;9.90;;;2.50;;
37477;SDS011;23334;54.316;10.182;2023-04-25T08:13:13;7.53;;;2.17;;
37477;SDS011;23334;54.316;10.182;2023-04-25T08:15:39;11.40;;;2.70;;
37477;SDS011;23334;54.316;10.182;2023-04-25T08:18:05;8.13;;;2.10;;
37477;SDS011;23334;54.316;10.182;2023-04-25T08:20:31;6.73;;;2.10;;
37477;SDS011;23334;54.316;10.182;2023-04-25T08:22:57;3.83;;;2.03;;
37477;SDS011;23334;54.316;10.182;2023-04-25T08:25:24;11.73;;;2.60;;
37477;SDS011;23334;54.316;10.182;2023-04-25T08:27:50;6.37;;;2.03;;
37477;SDS011;23334;54.316;10.182;2023-04-25T08:30:16;6.80;;;2.07;;
37477;SDS011;23334;54.316;10.182;2023-04-25T08:32:42;7.23;;;2.80;;
37477;SDS011;23334;54.316;10.182;2023-04-25T08:35:08;5.80;;;1.97;;
37477;SDS011;23334;54.316;10.182;2023-04-25T08:37:33;8.20;;;2.47;;
37477;SDS011;23334;54.316;10.182;2023-04-25T08:40:01;4.27;;;1.93;;
37477;SDS011;23334;54.316;10.182;2023-04-25T08:42:27;10.13;;;2.20;;
37477;SDS011;23334;54.316;10.182;2023-04-25T08:44:55;13.00;;;2.07;;
37477;SDS011;23334;54.316;10.182;2023-04-25T08:47:22;3.20;;;1.43;;
37477;SDS011;23334;54.316;10.182;2023-04-25T08:49:48;9.70;;;2.00;;
37477;SDS011;23334;54.316;10.182;2023-04-25T08:52:15;8.00;;;2.20;;
37477;SDS011;23334;54.316;10.182;2023-04-25T08:54:47;6.70;;;2.20;;
37477;SDS011;23334;54.316;10.182;2023-04-25T08:57:13;3.60;;;1.70;;
37477;SDS011;23334;54.316;10.182;2023-04-25T08:59:40;8.50;;;2.30;;
37477;SDS011;23334;54.316;10.182;2023-04-25T09:02:10;7.17;;;2.30;;
37477;SDS011;23334;54.316;10.182;2023-04-25T09:04:39;6.67;;;1.30;;
37477;SDS011;23334;54.316;10.182;2023-04-25T09:07:05;12.80;;;1.83;;
37477;SDS011;23334;54.316;10.182;2023-04-25T09:09:30;8.47;;;1.30;;
37477;SDS011;23334;54.316;10.182;2023-04-25T09:11:56;4.00;;;1.70;;
37477;SDS011;23334;54.316;10.182;2023-04-25T09:14:23;4.60;;;1.87;;
37477;SDS011;23334;54.316;10.182;2023-04-25T09:17:00;7.43;;;1.47;;
37477;SDS011;23334;54.316;10.182;2023-04-25T09:19:28;5.47;;;2.47;;
37477;SDS011;23334;54.316;10.182;2023-04-25T09:22:00;8.20;;;1.40;;
37477;SDS011;23334;54.316;10.182;2023-04-25T09:24:41;6.00;;;1.20;;
37477;SDS011;23334;54.316;10.182;2023-04-25T09:27:10;10.97;;;1.60;;
37477;SDS011;23334;54.316;10.182;2023-04-25T09:29:40;7.70;;;2.47;;
37477;SDS011;23334;54.316;10.182;2023-04-25T09:34:51;4.33;;;1.63;;
37477;SDS011;23334;54.316;10.182;2023-04-25T09:37:28;7.40;;;1.67;;
37477;SDS011;23334;54.316;10.182;2023-04-25T09:39:59;1.80;;;1.10;;
37477;SDS011;23334;54.316;10.182;2023-04-25T09:42:28;7.63;;;2.10;;
37477;SDS011;23334;54.316;10.182;2023-04-25T09:44:56;5.00;;;1.87;;
37477;SDS011;23334;54.316;10.182;2023-04-25T09:47:22;6.00;;;1.63;;
37477;SDS011;23334;54.316;10.182;2023-04-25T09:49:50;7.73;;;1.67;;
37477;SDS011;23334;54.316;10.182;2023-04-25T09:52:17;16.63;;;2.17;;
37477;SDS011;23334;54.316;10.182;2023-04-25T09:54:45;9.87;;;1.83;;
37477;SDS011;23334;54.316;10.182;2023-04-25T09:57:15;7.67;;;1.80;;
37477;SDS011;23334;54.316;10.182;2023-04-25T09:59:46;2.70;;;1.97;;
37477;SDS011;23334;54.316;10.182;2023-04-25T10:02:14;6.47;;;2.03;;
37477;SDS011;23334;54.316;10.182;2023-04-25T10:04:42;4.60;;;1.90;;
37477;SDS011;23334;54.316;10.182;2023-04-25T10:07:12;3.50;;;1.70;;
37477;SDS011;23334;54.316;10.182;2023-04-25T10:09:39;8.40;;;2.47;;
37477;SDS011;23334;54.316;10.182;2023-04-25T10:12:05;8.37;;;3.30;;
37477;SDS011;23334;54.316;10.182;2023-04-25T10:14:32;4.53;;;1.83;;
37477;SDS011;23334;54.316;10.182;2023-04-25T10:16:59;5.73;;;1.37;;
37477;SDS011;23334;54.316;10.182;2023-04-25T10:19:25;8.10;;;1.80;;
37477;SDS011;23334;54.316;10.182;2023-04-25T10:21:52;3.03;;;1.40;;
37477;SDS011;23334;54.316;10.182;2023-04-25T10:24:42;2.83;;;1.50;;
37477;SDS011;23334;54.316;10.182;2023-04-25T10:27:09;5.77;;;1.30;;
37477;SDS011;23334;54.316;10.182;2023-04-25T10:29:35;2.67;;;1.40;;
37477;SDS011;23334;54.316;10.182;2023-04-25T10:32:01;5.60;;;1.87;;
37477;SDS011;23334;54.316;10.182;2023-04-25T10:34:37;8.40;;;2.00;;
37477;SDS011;23334;54.316;10.182;2023-04-25T10:37:04;5.90;;;1.97;;
37477;SDS011;23334;54.316;10.182;2023-04-25T10:39:31;3.83;;;1.80;;
37477;SDS011;23334;54.316;10.182;2023-04-25T10:41:58;11.20;;;2.03;;
37477;SDS011;23334;54.316;10.182;2023-04-25T10:44:27;7.30;;;2.13;;
37477;SDS011;23334;54.316;10.182;2023-04-25T10:46:57;11.30;;;2.27;;
37477;SDS011;23334;54.316;10.182;2023-04-25T10:49:31;6.83;;;2.00;;
37477;SDS011;23334;54.316;10.182;2023-04-25T10:52:13;11.70;;;1.73;;
37477;SDS011;23334;54.316;10.182;2023-04-25T10:54:47;10.10;;;1.63;;
37477;SDS011;23334;54.316;10.182;2023-04-25T11:00:00;7.93;;;2.40;;
37477;SDS011;23334;54.316;10.182;2023-04-25T11:02:29;5.03;;;1.70;;
37477;SDS011;23334;54.316;10.182;2023-04-25T11:04:56;6.07;;;1.80;;
37477;SDS011;23334;54.316;10.182;2023-04-25T11:10:04;5.80;;;2.10;;
37477;SDS011;23334;54.316;10.182;2023-04-25T11:12:30;7.13;;;1.87;;
37477;SDS011;23334;54.316;10.182;2023-04-25T11:15:00;8.83;;;2.03;;
37477;SDS011;23334;54.316;10.182;2023-04-25T11:17:27;5.17;;;2.23;;
37477;SDS011;23334;54.316;10.182;2023-04-25T11:19:53;2.63;;;1.90;;
37477;SDS011;23334;54.316;10.182;2023-04-25T11:22:19;4.53;;;1.23;;
37477;SDS011;23334;54.316;10.182;2023-04-25T11:24:47;1.90;;;1.00;;
37477;SDS011;23334;54.316;10.182;2023-04-25T11:27:14;1.77;;;1.20;;
37477;SDS011;23334;54.316;10.182;2023-04-25T11:29:40;4.20;;;1.40;;
37477;SDS011;23334;54.316;10.182;2023-04-25T11:32:06;3.73;;;1.10;;
37477;SDS011;23334;54.316;10.182;2023-04-25T11:34:32;2.80;;;0.90;;
37477;SDS011;23334;54.316;10.182;2023-04-25T11:36:58;2.00;;;1.47;;
37477;SDS011;23334;54.316;10.182;2023-04-25T11:39:25;6.03;;;1.37;;
37477;SDS011;23334;54.316;10.182;2023-04-25T11:41:51;8.00;;;1.27;;
37477;SDS011;23334;54.316;10.182;2023-04-25T11:44:18;4.83;;;1.47;;
37477;SDS011;23334;54.316;10.182;2023-04-25T11:46:44;3.00;;;1.30;;
37477;SDS011;23334;54.316;10.182;2023-04-25T11:49:11;4.63;;;1.17;;
37477;SDS011;23334;54.316;10.182;2023-04-25T11:54:05;5.60;;;1.87;;
37477;SDS011;23334;54.316;10.182;2023-04-25T11:56:31;9.57;;;1.60;;
37477;SDS011;23334;54.316;10.182;2023-04-25T11:59:02;2.20;;;1.23;;
37477;SDS011;23334;54.316;10.182;2023-04-25T12:01:29;2.80;;;1.43;;
37477;SDS011;23334;54.316;10.182;2023-04-25T12:03:56;2.90;;;1.60;;
37477;SDS011;23334;54.316;10.182;2023-04-25T12:06:28;5.37;;;1.73;;
37477;SDS011;23334;54.316;10.182;2023-04-25T12:09:00;4.17;;;1.47;;
37477;SDS011;23334;54.316;10.182;2023-04-25T12:11:40;6.77;;;1.20;;
37477;SDS011;23334;54.316;10.182;2023-04-25T12:14:09;4.50;;;0.90;;
37477;SDS011;23334;54.316;10.182;2023-04-25T12:16:42;3.97;;;1.07;;
37477;SDS011;23334;54.316;10.182;2023-04-25T12:19:09;4.90;;;1.13;;
37477;SDS011;23334;54.316;10.182;2023-04-25T12:21:35;4.67;;;1.43;;
37477;SDS011;23334;54.316;10.182;2023-04-25T12:24:11;3.00;;;1.10;;
37477;SDS011;23334;54.316;10.182;2023-04-25T12:29:31;4.13;;;1.30;;
37477;SDS011;23334;54.316;10.182;2023-04-25T12:31:57;9.70;;;2.00;;
37477;SDS011;23334;54.316;10.182;2023-04-25T12:34:23;5.00;;;1.37;;
37477;SDS011;23334;54.316;10.182;2023-04-25T12:36:51;1.63;;;1.13;;
37477;SDS011;23334;54.316;10.182;2023-04-25T12:39:21;2.50;;;1.13;;
37477;SDS011;23334;54.316;10.182;2023-04-25T12:41:48;6.17;;;1.43;;
37477;SDS011;23334;54.316;10.182;2023-04-25T12:44:14;6.17;;;1.43;;
37477;SDS011;23334;54.316;10.182;2023-04-25T12:46:40;9.50;;;2.10;;
37477;SDS011;23334;54.316;10.182;2023-04-25T12:49:07;5.73;;;1.50;;
37477;SDS011;23334;54.316;10.182;2023-04-25T12:51:33;4.03;;;1.30;;
37477;SDS011;23334;54.316;10.182;2023-04-25T12:53:59;2.10;;;1.00;;
37477;SDS011;23334;54.316;10.182;2023-04-25T12:56:26;3.40;;;1.10;;
37477;SDS011;23334;54.316;10.182;2023-04-25T12:58:52;3.40;;;1.10;;
37477;SDS011;23334;54.316;10.182;2023-04-25T13:01:18;2.73;;;0.97;;
37477;SDS011;23334;54.316;10.182;2023-04-25T13:03:44;3.33;;;1.00;;
37477;SDS011;23334;54.316;10.182;2023-04-25T13:06:10;3.13;;;0.97;;
37477;SDS011;23334;54.316;10.182;2023-04-25T13:08:37;4.13;;;1.17;;
37477;SDS011;23334;54.316;10.182;2023-04-25T13:11:04;10.33;;;1.00;;
37477;SDS011;23334;54.316;10.182;2023-04-25T13:13:30;6.73;;;1.83;;
37477;SDS011;23334;54.316;10.182;2023-04-25T13:15:56;4.90;;;1.40;;
37477;SDS011;23334;54.316;10.182;2023-04-25T13:18:22;4.90;;;2.43;;
37477;SDS011;23334;54.316;10.182;2023-04-25T13:20:52;10.10;;;1.90;;
37477;SDS011;23334;54.316;10.182;2023-04-25T13:23:18;6.23;;;1.07;;
37477;SDS011;23334;54.316;10.182;2023-04-25T13:25:45;7.97;;;2.17;;
37477;SDS011;23334;54.316;10.182;2023-04-25T13:28:12;9.10;;;1.07;;
37477;SDS011;23334;54.316;10.182;2023-04-25T13:30:37;6.00;;;1.30;;
37477;SDS011;23334;54.316;10.182;2023-04-25T13:33:03;9.67;;;1.57;;
37477;SDS011;23334;54.316;10.182;2023-04-25T13:35:31;5.23;;;1.10;;
37477;SDS011;23334;54.316;10.182;2023-04-25T13:37:58;7.20;;;1.80;;
37477;SDS011;23334;54.316;10.182;2023-04-25T13:40:24;7.00;;;1.90;;
37477;SDS011;23334;54.316;10.182;2023-04-25T13:42:50;3.27;;;1.13;;
37477;SDS011;23334;54.316;10.182;2023-04-25T13:45:16;6.87;;;1.37;;
37477;SDS011;23334;54.316;10.182;2023-04-25T13:47:42;3.67;;;1.13;;
37477;SDS011;23334;54.316;10.182;2023-04-25T13:50:08;2.90;;;1.20;;
37477;SDS011;23334;54.316;10.182;2023-04-25T13:52:34;3.07;;;1.03;;
37477;SDS011;23334;54.316;10.182;2023-04-25T13:55:01;3.33;;;1.00;;
37477;SDS011;23334;54.316;10.182;2023-04-25T13:57:28;8.13;;;0.97;;
37477;SDS011;23334;54.316;10.182;2023-04-25T13:59:55;7.17;;;1.20;;
37477;SDS011;23334;54.316;10.182;2023-04-25T14:02:20;6.03;;;1.30;;
37477;SDS011;23334;54.316;10.182;2023-04-25T14:04:46;4.60;;;2.07;;
37477;SDS011;23334;54.316;10.182;2023-04-25T14:07:13;13.20;;;1.83;;
37477;SDS011;23334;54.316;10.182;2023-04-25T14:09:41;4.70;;;1.20;;
37477;SDS011;23334;54.316;10.182;2023-04-25T14:12:06;3.87;;;1.27;;
37477;SDS011;23334;54.316;10.182;2023-04-25T14:14:32;5.13;;;1.37;;
37477;SDS011;23334;54.316;10.182;2023-04-25T14:16:58;4.63;;;1.20;;
37477;SDS011;23334;54.316;10.182;2023-04-25T14:19:24;6.77;;;1.30;;
37477;SDS011;23334;54.316;10.182;2023-04-25T14:21:50;5.50;;;1.30;;
37477;SDS011;23334;54.316;10.182;2023-04-25T14:24:15;5.63;;;1.13;;
37477;SDS011;23334;54.316;10.182;2023-04-25T14:26:41;6.43;;;1.60;;
37477;SDS011;23334;54.316;10.182;2023-04-25T14:29:07;7.60;;;1.57;;
37477;SDS011;23334;54.316;10.182;2023-04-25T14:31:38;5.37;;;1.97;;
37477;SDS011;23334;54.316;10.182;2023-04-25T14:34:04;3.80;;;1.10;;
37477;SDS011;23334;54.316;10.182;2023-04-25T14:36:31;3.10;;;1.10;;
37477;SDS011;23334;54.316;10.182;2023-04-25T14:38:57;4.43;;;1.30;;
37477;SDS011;23334;54.316;10.182;2023-04-25T14:41:23;2.20;;;1.27;;